createdAt,value
2019-03-13T00:01:41.629Z,8.14
2019-03-13T00:04:12.894Z,8.19
2019-03-13T00:06:44.461Z,8.21
2019-03-13T00:09:15.923Z,8.15
2019-03-13T00:11:47.449Z,8.17
2019-03-13T00:14:18.670Z,8.16
2019-03-13T00:16:50.202Z,8.12
2019-03-13T00:19:22.131Z,8.18
2019-03-13T00:21:54.047Z,8.18
2019-03-13T00:24:25.551Z,8.17
2019-03-13T00:26:56.913Z,8.21
2019-03-13T00:29:28.013Z,8.23
2019-03-13T00:32:00.225Z,8.17
2019-03-13T00:34:31.461Z,8.18
2019-03-13T00:37:03.530Z,8.06
2019-03-13T00:39:34.755Z,7.64
2019-03-13T00:42:05.981Z,7.27
2019-03-13T00:44:37.273Z,7.11
2019-03-13T00:47:08.862Z,6.95
2019-03-13T00:49:40.656Z,6.81
2019-03-13T00:52:11.938Z,6.75
2019-03-13T00:54:43.459Z,6.64
2019-03-13T00:57:14.840Z,6.60
2019-03-13T00:59:46.043Z,6.49
2019-03-13T01:02:48.450Z,6.32
2019-03-13T01:05:28.008Z,6.33
2019-03-13T01:07:59.195Z,6.25
2019-03-13T01:10:30.472Z,6.21
2019-03-13T01:13:02.108Z,6.15
2019-03-13T01:15:33.340Z,6.09
2019-03-13T01:18:04.569Z,6.07
2019-03-13T01:20:36.089Z,5.97
2019-03-13T01:23:07.330Z,5.93
2019-03-13T01:25:38.622Z,5.90
2019-03-13T01:28:10.203Z,5.89
2019-03-13T01:30:50.667Z,5.85
2019-03-13T01:33:22.975Z,5.79
2019-03-13T01:36:00.584Z,5.73
2019-03-13T01:38:31.799Z,5.71
2019-03-13T01:41:03.621Z,5.60
2019-03-13T01:43:34.981Z,5.50
2019-03-13T01:46:06.572Z,5.58
2019-03-13T01:48:37.742Z,5.58
2019-03-13T01:51:09.358Z,5.55
2019-03-13T01:53:40.585Z,5.53
2019-03-13T01:56:12.097Z,5.49
2019-03-13T01:58:43.327Z,5.50
2019-03-13T02:01:14.830Z,5.37
2019-03-13T02:03:46.971Z,5.41
2019-03-13T02:06:18.814Z,5.33
2019-03-13T02:08:50.083Z,5.37
2019-03-13T02:11:22.300Z,5.29
2019-03-13T02:13:55.103Z,5.35
2019-03-13T02:16:26.306Z,5.29
2019-03-13T02:18:58.558Z,5.22
2019-03-13T02:21:29.784Z,5.25
2019-03-13T02:24:01.376Z,5.11
2019-03-13T02:26:32.617Z,5.15
2019-03-13T02:29:04.320Z,5.07
2019-03-13T02:31:36.645Z,5.02
2019-03-13T02:34:08.212Z,5.03
2019-03-13T02:36:39.354Z,4.93
2019-03-13T02:39:11.260Z,4.90
2019-03-13T02:41:42.843Z,4.90
2019-03-13T02:44:14.378Z,4.93
2019-03-13T02:46:45.602Z,4.85
2019-03-13T02:49:17.148Z,4.80
2019-03-13T02:51:48.346Z,4.83
2019-03-13T02:54:19.833Z,4.77
2019-03-13T02:56:51.391Z,4.77
2019-03-13T02:59:22.607Z,4.78
2019-03-13T03:02:17.104Z,4.78
2019-03-13T03:04:48.726Z,4.76
2019-03-13T03:07:19.898Z,4.75
2019-03-13T03:09:51.132Z,4.70
2019-03-13T03:12:22.442Z,4.68
2019-03-13T03:15:07.319Z,4.71
2019-03-13T03:17:39.198Z,4.72
2019-03-13T03:20:13.991Z,4.68
2019-03-13T03:22:45.814Z,4.67
2019-03-13T03:25:17.758Z,4.68
2019-03-13T03:27:49.756Z,4.76
2019-03-13T03:30:23.185Z,4.75
2019-03-13T03:32:55.441Z,4.72
2019-03-13T03:35:26.780Z,4.69
2019-03-13T03:37:58.077Z,4.70
2019-03-13T03:40:29.304Z,4.71
2019-03-13T03:43:01.117Z,4.66
2019-03-13T03:45:33.853Z,4.63
2019-03-13T03:48:05.362Z,4.60
2019-03-13T03:50:36.524Z,4.59
2019-03-13T03:53:07.710Z,4.55
2019-03-13T03:55:39.083Z,4.50
2019-03-13T03:58:10.276Z,4.51
2019-03-13T04:00:41.980Z,4.48
2019-03-13T04:03:13.432Z,4.48
2019-03-13T04:05:44.944Z,4.47
2019-03-13T04:08:16.159Z,4.43
2019-03-13T04:10:47.403Z,4.41
2019-03-13T04:13:18.901Z,4.35
2019-03-13T04:15:50.493Z,4.34
2019-03-13T04:18:21.723Z,4.26
2019-03-13T04:20:53.015Z,4.28
2019-03-13T04:23:24.598Z,4.21
2019-03-13T04:25:55.835Z,4.16
2019-03-13T04:28:27.022Z,4.15
2019-03-13T04:30:58.651Z,4.16
2019-03-13T04:33:30.191Z,4.13
2019-03-13T04:36:01.423Z,4.13
2019-03-13T04:38:32.638Z,4.15
2019-03-13T04:41:04.238Z,4.22
2019-03-13T04:43:35.466Z,4.25
2019-03-13T04:46:06.693Z,4.24
2019-03-13T04:48:38.446Z,4.26
2019-03-13T04:51:10.328Z,4.22
2019-03-13T04:53:41.907Z,4.23
2019-03-13T04:56:13.432Z,4.19
2019-03-13T04:58:45.285Z,4.23
2019-03-13T05:01:16.777Z,4.27
2019-03-13T05:03:48.042Z,4.25
2019-03-13T05:06:23.952Z,4.25
2019-03-13T05:09:04.662Z,4.33
2019-03-13T05:11:35.922Z,4.34
2019-03-13T05:14:07.106Z,4.32
2019-03-13T05:16:38.290Z,4.29
2019-03-13T05:19:10.487Z,4.32
2019-03-13T05:21:41.999Z,4.31
2019-03-13T05:24:13.222Z,4.35
2019-03-13T05:26:44.487Z,4.38
2019-03-13T05:29:16.313Z,4.42
2019-03-13T05:31:49.354Z,4.39
2019-03-13T05:34:20.577Z,4.41
2019-03-13T05:36:52.117Z,4.40
2019-03-13T05:39:23.328Z,4.49
2019-03-13T05:41:55.765Z,4.47
2019-03-13T05:44:27.961Z,4.45
2019-03-13T05:46:59.589Z,4.50
2019-03-13T05:49:31.771Z,4.58
2019-03-13T05:52:03.935Z,4.67
2019-03-13T05:54:35.697Z,4.66
2019-03-13T05:57:07.819Z,4.66
2019-03-13T05:59:39.050Z,4.68
2019-03-13T06:02:10.315Z,4.72
2019-03-13T06:04:42.114Z,4.73
2019-03-13T06:07:13.684Z,4.77
2019-03-13T06:09:45.168Z,4.83
2019-03-13T06:12:17.077Z,4.88
2019-03-13T06:14:48.842Z,4.94
2019-03-13T06:17:20.009Z,4.96
2019-03-13T06:19:51.739Z,5.02
2019-03-13T06:22:22.929Z,5.01
2019-03-13T06:24:54.569Z,5.08
2019-03-13T06:27:26.643Z,5.14
2019-03-13T06:29:58.263Z,5.13
2019-03-13T06:32:29.503Z,5.17
2019-03-13T06:35:01.148Z,5.16
2019-03-13T06:37:32.369Z,5.22
2019-03-13T06:40:03.896Z,5.26
2019-03-13T06:42:36.221Z,5.31
2019-03-13T06:45:09.725Z,5.30
2019-03-13T06:47:41.269Z,5.31
2019-03-13T06:50:16.862Z,5.33
2019-03-13T06:52:48.086Z,5.37
2019-03-13T06:55:19.604Z,5.46
2019-03-13T06:57:51.986Z,5.47
2019-03-13T07:00:45.194Z,5.52
2019-03-13T07:03:34.434Z,5.52
2019-03-13T07:06:24.084Z,5.56
2019-03-13T07:09:00.399Z,5.59
2019-03-13T07:11:53.291Z,5.63
2019-03-13T07:14:43.736Z,5.67
2019-03-13T07:17:35.336Z,5.69
2019-03-13T07:20:25.565Z,5.70
2019-03-13T07:23:12.568Z,5.72
2019-03-13T07:26:01.699Z,5.75
2019-03-13T07:28:55.213Z,5.79
2019-03-13T07:31:43.766Z,5.79
2019-03-13T07:34:32.445Z,5.82
2019-03-13T07:37:20.953Z,5.80
2019-03-13T07:40:09.766Z,5.84
2019-03-13T07:42:55.539Z,5.86
2019-03-13T07:45:44.736Z,5.88
2019-03-13T07:48:33.541Z,5.93
2019-03-13T07:51:19.763Z,5.97
2019-03-13T07:54:05.647Z,6.00
2019-03-13T07:56:54.881Z,6.02
2019-03-13T07:59:53.945Z,6.06
2019-03-13T08:02:45.626Z,6.11
2019-03-13T08:05:42.201Z,6.16
2019-03-13T08:08:41.370Z,6.21
2019-03-13T08:11:44.416Z,6.25
2019-03-13T08:14:41.205Z,6.29
2019-03-13T08:17:44.313Z,6.31
2019-03-13T08:20:33.075Z,6.35
2019-03-13T08:23:29.249Z,6.38
2019-03-13T08:26:22.525Z,6.44
2019-03-13T08:29:28.280Z,6.44
2019-03-13T08:32:25.124Z,6.58
2019-03-13T08:35:26.647Z,6.59
2019-03-13T08:38:06.068Z,6.74
2019-03-13T08:41:02.072Z,6.74
2019-03-13T08:43:54.594Z,6.87
2019-03-13T08:46:50.756Z,6.90
2019-03-13T08:49:35.151Z,6.99
2019-03-13T08:52:40.536Z,7.07
2019-03-13T08:55:25.779Z,7.12
2019-03-13T08:58:11.465Z,7.07
2019-03-13T09:01:01.572Z,7.10
2019-03-13T09:03:58.693Z,7.13
2019-03-13T09:07:04.024Z,7.15
2019-03-13T09:09:49.533Z,7.41
2019-03-13T09:12:34.309Z,8.03
2019-03-13T09:15:28.557Z,8.04
2019-03-13T09:18:17.221Z,7.79
2019-03-13T09:21:19.773Z,7.89
2019-03-13T09:24:21.793Z,8.11
2019-03-13T09:27:21.337Z,8.15
2019-03-13T09:30:10.296Z,8.23
2019-03-13T09:33:07.067Z,8.20
2019-03-13T09:35:59.185Z,8.61
2019-03-13T09:39:02.277Z,8.66
2019-03-13T09:41:58.273Z,8.33
2019-03-13T09:44:56.960Z,8.35
2019-03-13T09:47:47.033Z,8.23
2019-03-13T09:50:26.342Z,8.32
2019-03-13T09:53:22.460Z,8.25
2019-03-13T09:56:12.602Z,8.15
2019-03-13T09:59:03.314Z,8.32
2019-03-13T10:01:49.659Z,8.08
2019-03-13T10:04:42.331Z,8.21
2019-03-13T10:07:44.915Z,8.24
2019-03-13T10:10:35.131Z,8.16
2019-03-13T10:13:18.634Z,8.12
2019-03-13T10:16:01.792Z,8.02
2019-03-13T10:18:52.257Z,8.05
2019-03-13T10:21:57.632Z,8.13
2019-03-13T10:24:46.407Z,8.21
2019-03-13T10:27:27.417Z,8.18
2019-03-13T10:30:14.737Z,8.18
2019-03-13T10:32:52.662Z,8.11
2019-03-13T10:35:52.690Z,8.09
2019-03-13T10:38:40.533Z,8.11
2019-03-13T10:41:17.743Z,8.09
2019-03-13T10:44:08.499Z,8.05
2019-03-13T10:46:48.795Z,8.12
2019-03-13T10:49:42.220Z,8.14
2019-03-13T10:52:41.816Z,8.12
2019-03-13T10:55:22.703Z,8.15
2019-03-13T10:58:18.805Z,8.13
2019-03-13T11:01:07.837Z,8.13
2019-03-13T11:03:50.719Z,8.11
2019-03-13T11:06:54.006Z,8.12
2019-03-13T11:09:36.405Z,8.02
2019-03-13T11:12:14.702Z,8.11
2019-03-13T11:15:01.559Z,7.97
2019-03-13T11:17:52.008Z,7.96
2019-03-13T11:20:34.878Z,8.13
2019-03-13T11:23:27.816Z,8.15
2019-03-13T11:26:26.917Z,8.18
2019-03-13T11:29:05.360Z,8.13
2019-03-13T11:32:02.088Z,8.32
2019-03-13T11:34:58.517Z,8.34
2019-03-13T11:37:52.250Z,8.59
2019-03-13T11:40:34.852Z,8.32
2019-03-13T11:43:41.540Z,8.55
2019-03-13T11:46:28.996Z,8.67
2019-03-13T11:49:35.419Z,8.67
2019-03-13T11:52:34.716Z,8.61
2019-03-13T11:55:31.888Z,8.69
2019-03-13T11:58:31.012Z,8.65
2019-03-13T12:01:20.288Z,8.70
2019-03-13T12:04:08.834Z,8.70
2019-03-13T12:06:59.034Z,8.75
2019-03-13T12:09:49.269Z,8.76
2019-03-13T12:12:55.058Z,8.81
2019-03-13T12:15:48.707Z,8.79
2019-03-13T12:18:38.860Z,8.88
2019-03-13T12:21:32.395Z,9.12
2019-03-13T12:24:25.448Z,8.92
2019-03-13T12:27:16.613Z,9.00
2019-03-13T12:29:59.450Z,8.75
2019-03-13T12:32:58.408Z,8.80
2019-03-13T12:35:51.897Z,8.61
2019-03-13T12:38:42.405Z,8.39
2019-03-13T12:41:41.017Z,8.65
2019-03-13T12:44:25.017Z,8.59
2019-03-13T12:47:24.042Z,8.46
2019-03-13T12:50:34.171Z,8.62
2019-03-13T12:53:34.463Z,8.71
2019-03-13T12:56:30.013Z,8.67
2019-03-13T12:59:21.867Z,8.63
2019-03-13T13:02:22.044Z,8.72
2019-03-13T13:05:10.756Z,8.72
2019-03-13T13:08:04.216Z,8.68
2019-03-13T13:11:01.257Z,8.61
2019-03-13T13:13:50.232Z,8.41
2019-03-13T13:16:43.174Z,8.44
2019-03-13T13:19:14.419Z,8.36
2019-03-13T13:21:45.942Z,8.50
2019-03-13T13:24:18.114Z,8.41
2019-03-13T13:26:50.411Z,8.45
2019-03-13T13:29:22.741Z,8.56
2019-03-13T13:31:55.481Z,8.61
2019-03-13T13:34:27.624Z,8.51
2019-03-13T13:36:59.575Z,8.51
2019-03-13T13:39:30.820Z,8.52
2019-03-13T13:42:02.496Z,8.58
2019-03-13T13:44:34.290Z,8.53
2019-03-13T13:47:05.770Z,8.73
2019-03-13T13:49:37.149Z,8.70
2019-03-13T13:52:08.479Z,8.58
2019-03-13T13:54:39.753Z,8.42
2019-03-13T13:57:11.095Z,8.52
2019-03-13T13:59:42.352Z,8.49
2019-03-13T14:02:13.884Z,8.57
2019-03-13T14:04:45.077Z,8.68
2019-03-13T14:07:33.319Z,8.77
2019-03-13T14:10:14.940Z,8.87
2019-03-13T14:13:08.189Z,8.86
2019-03-13T14:19:13.347Z,8.75
2019-03-13T14:21:48.879Z,8.57
2019-03-13T14:24:41.084Z,8.59
2019-03-13T14:27:15.818Z,8.77
2019-03-13T14:32:48.295Z,8.21
2019-03-13T14:35:19.589Z,8.14
2019-03-13T14:38:36.996Z,7.91
2019-03-13T14:41:21.755Z,8.02
2019-03-13T14:43:53.020Z,7.85
2019-03-13T14:46:24.979Z,7.79
2019-03-13T14:48:57.083Z,7.72
2019-03-13T14:51:29.272Z,7.70
2019-03-13T14:54:00.545Z,7.63
2019-03-13T14:56:32.402Z,7.59
2019-03-13T14:59:03.821Z,7.57
2019-03-13T15:01:35.237Z,7.51
2019-03-13T15:04:06.457Z,7.63
2019-03-13T15:06:38.907Z,7.50
2019-03-13T15:09:10.286Z,7.35
2019-03-13T15:11:41.475Z,7.32
2019-03-13T15:14:12.702Z,7.28
2019-03-13T15:16:44.244Z,7.24
2019-03-13T15:19:15.489Z,7.24
2019-03-13T15:21:46.773Z,7.01
2019-03-13T15:24:18.578Z,7.07
2019-03-13T15:26:49.804Z,6.83
2019-03-13T15:29:21.065Z,6.87
2019-03-13T15:31:52.959Z,6.57
2019-03-13T15:34:24.154Z,6.40
2019-03-13T15:37:02.973Z,6.45
2019-03-13T15:39:35.099Z,6.31
2019-03-13T15:42:06.701Z,6.27
2019-03-13T15:44:37.962Z,6.36
2019-03-13T15:47:09.166Z,6.18
2019-03-13T15:49:40.402Z,6.21
2019-03-13T15:52:11.692Z,6.21
2019-03-13T15:54:42.906Z,6.18
2019-03-13T15:57:14.416Z,6.10
2019-03-13T15:59:46.253Z,6.14
2019-03-13T16:02:17.820Z,6.21
2019-03-13T16:04:49.175Z,6.18
2019-03-13T16:07:21.357Z,6.18
2019-03-13T16:09:52.616Z,6.17
2019-03-13T16:12:24.921Z,6.19
2019-03-13T16:14:56.265Z,6.19
2019-03-13T16:17:27.786Z,6.19
2019-03-13T16:19:59.136Z,6.20
2019-03-13T16:22:30.392Z,6.20
2019-03-13T16:25:01.644Z,6.15
2019-03-13T16:27:32.862Z,6.15
2019-03-13T16:30:05.376Z,6.15
2019-03-13T16:32:43.766Z,6.16
2019-03-13T16:35:10.156Z,6.20
2019-03-13T16:37:41.765Z,6.21
2019-03-13T16:40:15.180Z,6.20
2019-03-13T16:42:46.401Z,6.16
2019-03-13T16:45:17.818Z,6.14
2019-03-13T16:51:49.686Z,6.09
2019-03-13T16:54:20.918Z,6.09
2019-03-13T16:56:52.293Z,6.04
2019-03-13T16:59:23.991Z,6.03
2019-03-13T17:01:56.348Z,6.01
2019-03-13T17:04:28.025Z,6.02
2019-03-13T17:07:00.427Z,6.00
2019-03-13T17:09:31.659Z,6.00
2019-03-13T17:12:02.889Z,6.01
2019-03-13T17:14:34.378Z,6.02
2019-03-13T17:17:05.621Z,6.03
2019-03-13T17:19:37.664Z,6.00
2019-03-13T17:22:08.976Z,5.96
2019-03-13T17:24:40.190Z,6.01
2019-03-13T17:27:11.395Z,5.95
2019-03-13T17:29:44.514Z,5.93
2019-03-13T17:32:16.802Z,5.92
2019-03-13T17:34:48.122Z,5.95
2019-03-13T17:37:19.479Z,5.94
2019-03-13T17:39:50.778Z,5.94
2019-03-13T17:42:22.072Z,5.92
2019-03-13T17:44:53.841Z,5.89
2019-03-13T17:47:25.557Z,5.84
2019-03-13T17:49:57.214Z,5.80
2019-03-13T17:52:28.483Z,5.76
2019-03-13T17:54:59.706Z,5.75
2019-03-13T17:57:31.018Z,5.71
2019-03-13T18:00:02.593Z,5.71
2019-03-13T18:02:34.643Z,5.65
2019-03-13T18:05:06.258Z,5.62
2019-03-13T18:07:38.056Z,5.61
2019-03-13T18:10:12.229Z,5.57
2019-03-13T18:12:43.568Z,5.56
2019-03-13T18:15:15.060Z,5.55
2019-03-13T18:17:46.841Z,5.53
2019-03-13T18:20:19.628Z,5.53
2019-03-13T18:22:51.034Z,5.56
2019-03-13T18:25:22.748Z,5.61
2019-03-13T18:27:54.280Z,5.58
2019-03-13T18:30:25.649Z,5.59
2019-03-13T18:32:57.230Z,5.58
2019-03-13T18:35:28.598Z,5.59
2019-03-13T18:37:59.981Z,5.57
2019-03-13T18:40:31.381Z,5.51
2019-03-13T18:43:02.772Z,5.50
2019-03-13T18:45:34.288Z,5.49
2019-03-13T18:48:05.581Z,5.53
2019-03-13T18:50:36.921Z,5.52
2019-03-13T18:53:08.206Z,5.52
2019-03-13T18:55:39.450Z,5.51
2019-03-13T18:58:13.973Z,5.51
2019-03-13T19:00:44.363Z,5.45
2019-03-13T19:03:15.969Z,5.40
2019-03-13T19:05:47.288Z,5.37
2019-03-13T19:08:18.941Z,5.35
2019-03-13T19:10:50.436Z,5.31
2019-03-13T19:13:22.043Z,5.31
2019-03-13T19:15:53.732Z,5.26
2019-03-13T19:18:25.359Z,5.25
2019-03-13T19:20:58.583Z,5.25
2019-03-13T19:23:30.037Z,5.25
2019-03-13T19:26:01.755Z,5.23
2019-03-13T19:28:33.072Z,5.21
2019-03-13T19:31:04.739Z,5.17
2019-03-13T19:33:36.783Z,5.18
2019-03-13T19:36:08.082Z,5.15
2019-03-13T19:38:41.139Z,5.13
2019-03-13T19:41:12.531Z,5.11
2019-03-13T19:43:43.770Z,5.11
2019-03-13T19:46:15.174Z,5.08
2019-03-13T19:48:46.420Z,5.07
2019-03-13T19:51:18.636Z,5.03
2019-03-13T19:53:49.988Z,5.02
2019-03-13T19:56:21.547Z,5.00
2019-03-13T19:58:52.794Z,5.00
2019-03-13T20:01:24.474Z,4.99
2019-03-13T20:03:56.015Z,5.02
2019-03-13T20:06:28.365Z,5.08
2019-03-13T20:09:00.042Z,5.10
2019-03-13T20:11:31.294Z,5.09
2019-03-13T20:14:03.048Z,5.07
2019-03-13T20:16:34.399Z,5.08
2019-03-13T20:19:06.420Z,5.14
2019-03-13T20:21:38.109Z,5.20
2019-03-13T20:24:09.771Z,5.22
2019-03-13T20:26:41.181Z,5.24
2019-03-13T20:29:12.530Z,5.24
2019-03-13T20:31:43.899Z,5.26
2019-03-13T20:34:15.248Z,5.31
2019-03-13T20:36:46.918Z,5.32
2019-03-13T20:39:18.555Z,5.34
2019-03-13T20:41:50.243Z,5.29
2019-03-13T20:44:22.149Z,5.32
2019-03-13T20:46:54.335Z,5.30
2019-03-13T20:49:25.616Z,5.31
2019-03-13T20:51:57.208Z,5.37
2019-03-13T20:54:28.492Z,5.40
2019-03-13T20:57:00.685Z,5.40
2019-03-13T20:59:32.753Z,5.42
2019-03-13T21:02:04.525Z,5.48
2019-03-13T21:04:36.122Z,5.49
2019-03-13T21:07:07.690Z,5.49
2019-03-13T21:09:39.266Z,5.52
2019-03-13T21:12:10.862Z,5.54
2019-03-13T21:14:42.411Z,5.55
2019-03-13T21:17:13.795Z,5.59
2019-03-13T21:19:45.047Z,5.55
2019-03-13T21:22:16.324Z,5.57
2019-03-13T21:24:48.551Z,5.59
2019-03-13T21:27:19.795Z,5.58
2019-03-13T21:29:51.033Z,5.62
2019-03-13T21:32:22.375Z,5.69
2019-03-13T21:34:54.064Z,5.68
2019-03-13T21:37:25.629Z,5.68
2019-03-13T21:39:56.981Z,5.71
2019-03-13T21:42:28.554Z,5.74
2019-03-13T21:44:59.851Z,5.78
2019-03-13T21:47:31.163Z,5.76
2019-03-13T21:50:02.754Z,5.81
2019-03-13T21:52:34.371Z,5.81
2019-03-13T21:55:06.100Z,5.79
2019-03-13T21:57:37.403Z,5.77
2019-03-13T22:00:16.272Z,5.79
2019-03-13T22:02:48.212Z,5.80
2019-03-13T22:05:25.549Z,5.78
2019-03-13T22:07:52.958Z,5.78
2019-03-13T22:10:24.573Z,5.80
2019-03-13T22:12:55.839Z,5.76
2019-03-13T22:15:27.154Z,5.79
2019-03-13T22:17:58.506Z,5.80
2019-03-13T22:20:29.776Z,5.87
2019-03-13T22:23:01.164Z,5.81
2019-03-13T22:25:32.459Z,5.84
2019-03-13T22:28:03.684Z,5.84
2019-03-13T22:30:34.932Z,5.83
2019-03-13T22:33:06.625Z,5.87
2019-03-13T22:35:37.985Z,5.92
2019-03-13T22:38:09.252Z,5.95
2019-03-13T22:40:41.438Z,5.95
2019-03-13T22:43:12.734Z,5.93
2019-03-13T22:45:44.291Z,5.90
2019-03-13T22:48:15.583Z,5.93
2019-03-13T22:50:46.835Z,5.92
2019-03-13T22:53:18.079Z,5.88
2019-03-13T22:55:49.433Z,5.91
2019-03-13T22:58:21.001Z,5.92
2019-03-13T23:01:04.261Z,5.93
2019-03-13T23:03:35.953Z,5.91
2019-03-13T23:06:07.222Z,5.90
2019-03-13T23:09:04.088Z,5.89
2019-03-13T23:12:00.820Z,5.86
2019-03-13T23:14:54.780Z,5.88
2019-03-13T23:17:47.780Z,5.80
2019-03-13T23:20:43.164Z,5.81
2019-03-13T23:23:44.902Z,5.80
2019-03-13T23:26:31.314Z,5.79
2019-03-13T23:29:15.668Z,5.80
2019-03-13T23:32:09.152Z,5.79
2019-03-13T23:34:51.040Z,5.82
2019-03-13T23:37:53.222Z,5.84
2019-03-13T23:40:45.145Z,5.82
2019-03-13T23:43:34.399Z,5.81
2019-03-13T23:46:16.264Z,5.79
2019-03-13T23:49:08.566Z,5.80
2019-03-13T23:52:13.544Z,5.80
2019-03-13T23:55:03.327Z,5.74
2019-03-13T23:57:49.664Z,5.73
